Time;durP1;ratioP1;P1;durP2;ratioP2;P2;SDS_P1;SDS_P2;PMS_P1;PMS_P2;Temp;Humidity;BMP_temperature;BMP_pressure;BME280_temperature;BME280_humidity;BME280_pressure;Samples;Min_cycle;Max_cycle;Signal;HPM_P1;HPM_P2
2023/06/27 00:00:00;;;;;;;5.47;1.27;;;19.40;59.20;;;;;;5032952;28;20598;-78
2023/06/27 00:02:30;;;;;;;3.63;1.13;;;19.40;59.20;;;;;;5050214;28;20619;-78
2023/06/27 00:04:56;;;;;;;4.00;1.30;;;19.40;59.30;;;;;;5016180;28;21170;-78
2023/06/27 00:07:27;;;;;;;3.00;0.90;;;19.40;59.50;;;;;;5016167;28;20278;-78
2023/06/27 00:09:56;;;;;;;2.57;0.90;;;19.40;59.60;;;;;;5032531;28;20607;-78
2023/06/27 00:12:22;;;;;;;3.17;0.80;;;19.40;59.70;;;;;;5032227;28;20669;-79
2023/06/27 00:14:48;;;;;;;2.83;1.20;;;19.40;59.90;;;;;;5032524;28;20966;-78
2023/06/27 00:17:16;;;;;;;2.63;1.10;;;19.40;60.00;;;;;;5033334;28;20180;-78
2023/06/27 00:19:44;;;;;;;3.57;1.17;;;19.30;60.10;;;;;;5032709;28;20587;-78
2023/06/27 00:22:11;;;;;;;3.23;1.10;;;19.30;60.30;;;;;;5015882;28;21183;-78
2023/06/27 00:24:38;;;;;;;4.37;1.00;;;19.30;60.50;;;;;;5032863;28;21290;-78
2023/06/27 00:27:05;;;;;;;2.20;1.23;;;19.30;60.70;;;;;;5049921;28;20666;-78
2023/06/27 00:29:31;;;;;;;4.00;1.10;;;19.30;60.90;;;;;;5016421;28;20623;-78
2023/06/27 00:31:57;;;;;;;3.00;1.00;;;19.30;61.30;;;;;;5031890;28;20958;-78
2023/06/27 00:34:23;;;;;;;2.77;1.00;;;19.30;61.40;;;;;;5032835;28;20572;-78
2023/06/27 00:36:48;;;;;;;3.20;1.30;;;19.30;61.70;;;;;;5015956;28;20192;-78
2023/06/27 00:39:14;;;;;;;3.40;0.83;;;19.30;61.90;;;;;;5016515;28;20208;-78
2023/06/27 00:41:40;;;;;;;2.73;1.07;;;19.30;62.10;;;;;;5049842;28;20216;-78
2023/06/27 00:44:08;;;;;;;3.43;1.00;;;19.30;62.30;;;;;;5032344;28;20177;-78
2023/06/27 00:46:38;;;;;;;1.60;0.80;;;19.30;62.50;;;;;;4996571;28;20259;-78
2023/06/27 00:49:10;;;;;;;3.10;0.90;;;19.30;62.90;;;;;;5005815;28;20588;-78
2023/06/27 00:51:38;;;;;;;2.13;0.90;;;19.30;63.00;;;;;;5012300;28;20615;-78
2023/06/27 00:54:03;;;;;;;2.10;0.90;;;19.30;63.00;;;;;;5030201;28;21148;-78
2023/06/27 00:56:29;;;;;;;2.73;0.87;;;19.30;63.40;;;;;;4996489;28;20639;-78
2023/06/27 00:58:59;;;;;;;3.57;0.90;;;19.30;63.70;;;;;;5012333;28;20665;-78
2023/06/27 01:01:25;;;;;;;1.63;0.70;;;19.30;64.00;;;;;;5011737;28;20194;-78
2023/06/27 01:03:51;;;;;;;3.10;0.80;;;19.30;64.10;;;;;;5012489;28;20929;-78
2023/06/27 01:06:35;;;;;;;3.67;0.90;;;19.30;64.30;;;;;;5025662;28;20651;-78
2023/06/27 01:09:11;;;;;;;2.47;1.03;;;19.30;65.20;;;;;;5015300;28;20599;-78
2023/06/27 01:11:47;;;;;;;1.77;0.83;;;19.30;65.30;;;;;;5030531;28;21075;-78
2023/06/27 01:14:19;;;;;;;2.13;0.80;;;19.30;65.60;;;;;;5006308;28;20612;-78
2023/06/27 01:16:47;;;;;;;3.40;0.90;;;19.30;65.40;;;;;;5031975;28;20591;-78
2023/06/27 01:19:19;;;;;;;3.60;0.97;;;19.30;65.60;;;;;;4999629;28;20587;-78
2023/06/27 01:21:52;;;;;;;2.90;0.80;;;19.30;66.00;;;;;;5014203;28;20623;-78
2023/06/27 01:24:18;;;;;;;1.63;0.80;;;19.40;66.40;;;;;;5014901;28;20610;-78
2023/06/27 01:26:44;;;;;;;3.03;1.03;;;19.40;66.30;;;;;;5014189;28;20655;-78
2023/06/27 01:29:11;;;;;;;5.13;1.53;;;19.40;66.60;;;;;;5022969;28;20181;-78
2023/06/27 01:31:45;;;;;;;2.00;0.90;;;19.40;67.00;;;;;;5014247;28;20200;-78
2023/06/27 01:34:37;;;;;;;3.37;0.97;;;19.40;67.10;;;;;;4998760;28;20673;-78
2023/06/27 01:37:17;;;;;;;2.33;0.90;;;19.40;68.30;;;;;;5024112;28;20584;-78
2023/06/27 01:40:07;;;;;;;2.23;0.80;;;19.30;68.00;;;;;;5015212;28;20636;-78
2023/06/27 01:42:41;;;;;;;1.87;1.00;;;19.40;68.10;;;;;;5014436;28;20596;-78
2023/06/27 01:45:08;;;;;;;3.50;1.00;;;19.40;68.50;;;;;;5041368;28;20579;-78
2023/06/27 01:47:41;;;;;;;5.07;0.93;;;19.40;68.40;;;;;;5032015;28;20631;-78
2023/06/27 01:50:10;;;;;;;1.60;0.77;;;19.40;69.10;;;;;;5015100;28;20571;-78
2023/06/27 01:52:36;;;;;;;2.70;0.93;;;19.40;68.90;;;;;;4997582;28;20618;-78
2023/06/27 01:55:04;;;;;;;3.83;0.80;;;19.40;69.10;;;;;;5014655;28;20610;-78
2023/06/27 01:57:32;;;;;;;3.53;1.20;;;19.50;69.30;;;;;;5048810;28;20591;-77
2023/06/27 01:59:58;;;;;;;1.90;0.80;;;19.50;69.70;;;;;;5015118;28;20633;-78
2023/06/27 02:02:24;;;;;;;2.00;0.80;;;19.40;69.90;;;;;;5029422;28;20638;-78
2023/06/27 02:04:50;;;;;;;2.70;0.80;;;19.40;70.00;;;;;;5031232;28;20184;-78
2023/06/27 02:07:15;;;;;;;2.33;0.70;;;19.50;70.40;;;;;;5030961;28;20665;-78
2023/06/27 02:09:41;;;;;;;2.00;0.80;;;19.40;70.50;;;;;;5031335;28;20579;-78
2023/06/27 02:12:09;;;;;;;4.40;1.10;;;19.40;70.70;;;;;;5013450;28;20693;-78
2023/06/27 02:14:35;;;;;;;3.67;0.80;;;19.40;71.00;;;;;;5048887;28;20180;-78
2023/06/27 02:17:01;;;;;;;1.90;0.87;;;19.40;71.10;;;;;;5031186;28;20587;-78
2023/06/27 02:19:26;;;;;;;3.60;0.70;;;19.30;71.30;;;;;;5014677;28;20173;-78
2023/06/27 02:21:52;;;;;;;3.93;0.83;;;19.30;71.60;;;;;;5015401;28;21338;-78
2023/06/27 02:24:18;;;;;;;1.70;0.87;;;19.30;72.10;;;;;;5017800;28;20200;-77
2023/06/27 02:26:44;;;;;;;2.63;0.70;;;19.30;72.30;;;;;;5002197;28;20196;-77
2023/06/27 02:29:11;;;;;;;2.60;0.70;;;19.20;72.50;;;;;;5034921;28;20754;-77
2023/06/27 02:31:37;;;;;;;2.00;0.90;;;19.20;72.90;;;;;;5034535;28;20881;-77
2023/06/27 02:34:04;;;;;;;1.97;1.30;;;19.10;73.20;;;;;;5018729;28;20571;-77
2023/06/27 02:36:31;;;;;;;2.83;0.90;;;19.10;73.50;;;;;;5047338;28;20611;-77
2023/06/27 02:39:00;;;;;;;1.90;0.90;;;19.00;74.00;;;;;;5046735;28;20591;-77
2023/06/27 02:41:26;;;;;;;1.70;0.70;;;19.00;74.50;;;;;;5050444;28;20584;-77
2023/06/27 02:43:52;;;;;;;1.70;0.90;;;19.00;74.40;;;;;;5052421;28;20586;-77
2023/06/27 02:46:18;;;;;;;2.17;1.00;;;18.90;74.70;;;;;;5034464;28;20246;-77
2023/06/27 02:48:44;;;;;;;3.20;0.83;;;18.90;75.10;;;;;;5018839;28;20579;-77
2023/06/27 02:51:10;;;;;;;2.77;1.00;;;18.80;75.40;;;;;;5033850;28;20981;-77
2023/06/27 02:53:36;;;;;;;3.40;1.00;;;18.80;75.80;;;;;;5034497;28;20632;-77
2023/06/27 02:56:03;;;;;;;4.40;0.97;;;18.70;76.30;;;;;;5034460;28;20623;-77
2023/06/27 02:58:32;;;;;;;1.60;0.80;;;18.70;77.40;;;;;;5034498;28;20641;-77
2023/06/27 03:01:06;;;;;;;2.63;0.90;;;18.60;77.00;;;;;;5034197;28;20682;-77
2023/06/27 03:03:35;;;;;;;4.23;1.30;;;18.60;77.40;;;;;;5001836;28;20615;-77
2023/06/27 03:06:08;;;;;;;2.40;0.83;;;18.60;77.90;;;;;;5034936;28;20643;-77
2023/06/27 03:08:38;;;;;;;2.50;0.90;;;18.60;78.30;;;;;;5017605;28;20641;-77
2023/06/27 03:11:04;;;;;;;5.60;1.00;;;18.60;78.90;;;;;;5051910;28;20686;-78
2023/06/27 03:13:30;;;;;;;2.33;0.90;;;18.60;79.10;;;;;;5034042;28;20623;-78
2023/06/27 03:15:56;;;;;;;3.00;0.90;;;18.60;79.60;;;;;;5034323;28;20583;-77
2023/06/27 03:18:22;;;;;;;3.07;1.10;;;18.60;79.90;;;;;;5034717;28;20591;-77
2023/06/27 03:20:48;;;;;;;4.83;1.00;;;18.60;80.20;;;;;;5018145;28;20587;-78
2023/06/27 03:23:14;;;;;;;3.70;1.10;;;18.70;80.60;;;;;;5034557;28;20236;-77
2023/06/27 03:25:40;;;;;;;2.90;1.07;;;18.70;80.70;;;;;;5021943;28;20595;-78
2023/06/27 03:28:06;;;;;;;2.83;0.83;;;18.70;81.10;;;;;;5035361;28;20200;-77
2023/06/27 03:30:43;;;;;;;1.90;0.80;;;18.70;81.30;;;;;;5019002;28;20593;-78
2023/06/27 03:33:11;;;;;;;4.03;0.80;;;18.70;81.50;;;;;;5037724;28;20689;-77
2023/06/27 03:35:37;;;;;;;5.20;1.00;;;18.70;81.80;;;;;;5034010;28;20591;-77
2023/06/27 03:38:02;;;;;;;2.27;1.10;;;18.70;82.00;;;;;;5051306;28;20319;-77
2023/06/27 03:40:28;;;;;;;2.47;0.90;;;18.70;82.30;;;;;;5033788;28;20649;-78
2023/06/27 03:42:56;;;;;;;3.03;1.23;;;18.70;82.50;;;;;;5016917;28;20205;-78
2023/06/27 03:45:22;;;;;;;3.33;1.27;;;18.80;82.90;;;;;;5034026;28;20636;-78
2023/06/27 03:47:48;;;;;;;4.97;1.30;;;18.70;83.00;;;;;;5034052;28;20631;-78
2023/06/27 03:50:14;;;;;;;3.30;1.30;;;18.70;83.30;;;;;;5034141;28;20580;-78
2023/06/27 03:52:40;;;;;;;4.20;1.00;;;18.70;83.70;;;;;;5050479;28;20702;-78
2023/06/27 03:55:06;;;;;;;3.03;1.20;;;18.70;83.70;;;;;;5017128;28;20173;-78
2023/06/27 03:57:32;;;;;;;2.80;1.00;;;18.80;85.00;;;;;;5033620;28;20560;-78
2023/06/27 03:59:57;;;;;;;2.80;1.20;;;18.80;84.80;;;;;;5033326;28;20596;-78
2023/06/27 04:02:23;;;;;;;3.83;1.40;;;18.80;85.00;;;;;;5000650;28;20217;-78
2023/06/27 04:04:49;;;;;;;2.60;1.00;;;18.80;85.10;;;;;;5016964;28;20181;-78
2023/06/27 04:07:15;;;;;;;5.40;1.37;;;18.80;85.40;;;;;;5017648;28;20213;-78
2023/06/27 04:09:41;;;;;;;2.07;1.00;;;18.80;85.60;;;;;;5016596;28;20594;-78
2023/06/27 04:12:08;;;;;;;3.70;1.10;;;18.90;86.00;;;;;;5032731;28;20254;-78
2023/06/27 04:14:34;;;;;;;2.63;1.00;;;18.90;86.10;;;;;;5050823;28;20679;-78
2023/06/27 04:17:00;;;;;;;2.60;1.23;;;19.00;86.30;;;;;;5032336;28;20588;-78
2023/06/27 04:19:27;;;;;;;4.13;1.20;;;19.00;86.50;;;;;;5000016;28;21147;-77
2023/06/27 04:21:54;;;;;;;2.33;1.10;;;19.00;86.70;;;;;;5031871;28;20623;-77
2023/06/27 04:24:20;;;;;;;3.10;1.93;;;19.00;86.80;;;;;;5016798;28;20604;-78
2023/06/27 04:26:45;;;;;;;2.90;1.10;;;19.10;87.00;;;;;;5016273;28;21464;-78
2023/06/27 04:29:11;;;;;;;2.70;0.90;;;19.10;87.40;;;;;;5041027;28;20239;-78
2023/06/27 04:31:37;;;;;;;3.03;1.17;;;19.10;87.50;;;;;;5031721;28;20705;-78
2023/06/27 04:34:03;;;;;;;3.20;1.60;;;19.10;87.80;;;;;;5015589;28;20169;-78
2023/06/27 04:36:29;;;;;;;5.30;1.20;;;19.10;87.90;;;;;;5031202;28;20536;-78
2023/06/27 04:38:54;;;;;;;4.27;1.10;;;19.20;88.10;;;;;;5050918;28;20599;-78
2023/06/27 04:41:20;;;;;;;4.00;1.40;;;19.20;88.40;;;;;;5050189;28;20180;-78
2023/06/27 04:43:46;;;;;;;4.90;1.00;;;19.30;88.40;;;;;;5032435;28;20169;-78
2023/06/27 04:46:12;;;;;;;3.30;1.40;;;19.30;88.30;;;;;;5032154;28;20623;-78
2023/06/27 04:48:37;;;;;;;4.87;1.03;;;19.30;88.60;;;;;;5049890;28;20199;-78
2023/06/27 04:51:03;;;;;;;4.23;1.30;;;19.30;88.50;;;;;;5015184;28;20173;-78
2023/06/27 04:53:30;;;;;;;3.53;1.10;;;19.30;88.80;;;;;;5032512;28;20189;-78
2023/06/27 04:55:56;;;;;;;5.33;1.30;;;19.30;88.80;;;;;;5032335;28;20587;-78
2023/06/27 04:58:21;;;;;;;5.10;1.20;;;19.30;88.90;;;;;;5032865;28;20568;-78
2023/06/27 05:00:48;;;;;;;5.90;1.20;;;19.30;88.90;;;;;;5031784;28;20180;-77
2023/06/27 05:03:14;;;;;;;4.50;1.60;;;19.20;88.90;;;;;;5014962;28;20209;-78
2023/06/27 05:05:40;;;;;;;3.80;1.07;;;19.30;89.40;;;;;;5032081;28;21101;-78
2023/06/27 05:08:07;;;;;;;2.90;1.30;;;19.30;89.60;;;;;;5032902;28;20572;-78
2023/06/27 05:10:33;;;;;;;4.07;1.37;;;19.30;89.90;;;;;;5032052;28;20690;-78
2023/06/27 05:13:00;;;;;;;5.97;1.90;;;19.30;90.10;;;;;;5049173;28;20617;-77
2023/06/27 05:15:27;;;;;;;5.43;1.57;;;19.30;90.20;;;;;;5050373;28;20655;-78
2023/06/27 05:17:54;;;;;;;4.40;1.13;;;19.40;90.40;;;;;;5032293;28;20663;-78
2023/06/27 05:20:20;;;;;;;3.43;1.30;;;19.40;90.50;;;;;;5032471;28;20631;-78
2023/06/27 05:22:46;;;;;;;5.47;1.47;;;19.50;90.70;;;;;;5048913;28;20627;-78
2023/06/27 05:25:12;;;;;;;4.00;1.47;;;19.60;90.80;;;;;;5042939;28;20638;-78
2023/06/27 05:27:38;;;;;;;4.07;1.00;;;19.70;91.00;;;;;;5022936;28;20736;-78
2023/06/27 05:30:04;;;;;;;2.90;1.13;;;19.80;90.90;;;;;;5032292;28;20574;-78
2023/06/27 05:32:30;;;;;;;5.50;1.63;;;20.00;90.90;;;;;;5014757;28;20639;-78
2023/06/27 05:34:56;;;;;;;5.43;1.10;;;20.00;90.90;;;;;;5048870;28;20599;-78
2023/06/27 05:37:21;;;;;;;5.90;1.53;;;20.10;90.90;;;;;;5031578;28;20184;-78
2023/06/27 05:39:47;;;;;;;3.47;1.20;;;20.30;91.10;;;;;;5049458;28;20211;-78
2023/06/27 05:42:13;;;;;;;4.70;1.20;;;20.50;91.10;;;;;;5031265;28;20192;-78
2023/06/27 05:44:38;;;;;;;3.10;0.90;;;20.60;91.10;;;;;;5031249;28;20180;-78
2023/06/27 05:47:05;;;;;;;2.27;1.10;;;20.80;91.20;;;;;;5031860;28;20220;-78
2023/06/27 05:49:31;;;;;;;2.17;1.10;;;21.10;91.40;;;;;;5031402;28;20180;-78
2023/06/27 05:51:57;;;;;;;3.90;1.40;;;21.30;91.20;;;;;;5030496;28;20616;-78
2023/06/27 05:54:23;;;;;;;5.40;1.43;;;21.60;91.40;;;;;;5014019;28;20681;-78
2023/06/27 05:56:49;;;;;;;4.10;1.57;;;22.30;91.90;;;;;;5015610;28;20621;-78
2023/06/27 05:59:15;;;;;;;3.80;1.30;;;23.00;92.20;;;;;;5035177;28;20652;-78
2023/06/27 06:01:41;;;;;;;3.63;1.13;;;23.90;92.40;;;;;;5017839;28;20212;-78
2023/06/27 06:04:07;;;;;;;3.10;1.00;;;24.90;92.40;;;;;;5053321;28;20928;-78
2023/06/27 06:06:38;;;;;;;6.07;1.30;;;25.90;91.90;;;;;;5035293;28;20204;-78
2023/06/27 06:09:05;;;;;;;3.77;1.10;;;26.80;90.90;;;;;;5053655;28;20165;-78
2023/06/27 06:11:34;;;;;;;4.73;1.00;;;27.90;89.30;;;;;;5034414;28;20654;-78
2023/06/27 06:14:01;;;;;;;3.23;1.10;;;28.70;86.80;;;;;;5053339;28;20571;-78
2023/06/27 06:16:27;;;;;;;4.70;1.40;;;29.70;84.00;;;;;;5035570;28;20599;-78
2023/06/27 06:18:53;;;;;;;5.07;1.20;;;30.50;80.50;;;;;;5034991;28;20583;-79
2023/06/27 06:21:20;;;;;;;4.03;1.30;;;31.20;77.20;;;;;;5034431;28;20619;-79
2023/06/27 06:23:45;;;;;;;4.00;1.30;;;31.80;74.50;;;;;;5041642;28;20611;-79
2023/06/27 06:26:11;;;;;;;3.40;1.00;;;32.40;72.40;;;;;;5018886;28;20657;-79
2023/06/27 06:28:37;;;;;;;3.17;0.80;;;33.00;70.70;;;;;;5018376;28;20266;-79
2023/06/27 06:31:04;;;;;;;5.50;0.97;;;33.60;68.40;;;;;;5018242;28;20183;-80
2023/06/27 06:33:30;;;;;;;3.33;1.30;;;34.00;65.90;;;;;;5034586;28;20623;-78
2023/06/27 06:35:56;;;;;;;5.00;1.40;;;34.50;63.70;;;;;;5034627;28;20590;-79
2023/06/27 06:38:22;;;;;;;6.37;1.30;;;34.90;61.80;;;;;;5053087;28;20184;-79
2023/06/27 06:40:47;;;;;;;2.90;1.00;;;35.30;59.90;;;;;;5034196;28;20582;-78
2023/06/27 06:43:13;;;;;;;5.80;1.63;;;35.70;58.90;;;;;;5052592;28;20204;-78
2023/06/27 06:45:39;;;;;;;4.43;1.40;;;36.00;57.30;;;;;;5034002;28;20280;-78
2023/06/27 06:48:05;;;;;;;3.53;0.97;;;36.30;56.10;;;;;;5034974;28;20204;-79
2023/06/27 06:50:32;;;;;;;5.57;1.53;;;36.50;55.20;;;;;;5017497;28;20177;-78
2023/06/27 06:52:58;;;;;;;3.83;1.10;;;36.70;54.10;;;;;;5034504;28;20701;-78
2023/06/27 06:55:23;;;;;;;4.77;1.20;;;36.90;53.10;;;;;;5034725;28;21237;-78
2023/06/27 06:57:49;;;;;;;5.60;1.80;;;37.20;52.60;;;;;;5051709;28;20559;-78
2023/06/27 07:00:17;;;;;;;4.83;1.17;;;37.40;52.00;;;;;;5034622;28;20260;-78
2023/06/27 07:02:43;;;;;;;4.27;1.67;;;37.70;51.10;;;;;;5050755;28;20750;-78
2023/06/27 07:05:10;;;;;;;3.47;0.80;;;38.00;50.60;;;;;;5053218;28;20666;-78
2023/06/27 07:07:36;;;;;;;4.80;1.30;;;38.30;49.90;;;;;;5033783;28;20211;-75
2023/06/27 07:10:02;;;;;;;6.30;1.70;;;38.60;49.20;;;;;;5051526;28;20575;-77
2023/06/27 07:12:27;;;;;;;4.60;1.20;;;38.80;48.30;;;;;;5050258;28;20258;-78
2023/06/27 07:14:53;;;;;;;3.33;1.03;;;39.10;47.80;;;;;;5033890;28;20259;-75
2023/06/27 07:17:19;;;;;;;3.70;1.10;;;39.40;47.20;;;;;;5033965;28;20243;-75
2023/06/27 07:19:44;;;;;;;3.07;0.93;;;39.70;46.60;;;;;;5040667;28;20173;-78
2023/06/27 07:22:10;;;;;;;5.90;1.10;;;39.90;45.70;;;;;;5051245;28;20637;-78
2023/06/27 07:24:36;;;;;;;3.30;0.97;;;40.10;45.00;;;;;;5051503;28;20280;-78
2023/06/27 07:27:02;;;;;;;5.40;1.37;;;40.30;44.40;;;;;;5017349;28;20215;-78
2023/06/27 07:29:28;;;;;;;4.33;0.97;;;40.40;43.80;;;;;;5033202;28;20169;-79
2023/06/27 07:31:54;;;;;;;7.40;1.33;;;40.60;42.70;;;;;;5032567;28;20714;-77
2023/06/27 07:34:22;;;;;;;4.00;1.10;;;40.70;42.50;;;;;;5017080;28;20571;-79
2023/06/27 07:36:48;;;;;;;4.43;1.17;;;40.80;41.70;;;;;;5030327;28;20185;-79
2023/06/27 07:39:14;;;;;;;2.70;0.80;;;41.00;41.70;;;;;;4997938;28;20576;-78
2023/06/27 07:41:40;;;;;;;4.43;1.20;;;41.10;41.40;;;;;;5017387;28;20193;-77
2023/06/27 07:44:05;;;;;;;5.20;1.20;;;41.30;40.90;;;;;;5013826;28;20173;-77
2023/06/27 07:46:31;;;;;;;4.30;0.97;;;41.40;40.70;;;;;;5046071;28;20204;-77
2023/06/27 07:48:59;;;;;;;3.40;1.10;;;41.60;40.70;;;;;;5034054;28;20207;-77
2023/06/27 07:51:26;;;;;;;3.17;1.00;;;41.80;39.60;;;;;;5032441;28;20183;-77
2023/06/27 07:53:52;;;;;;;4.80;1.13;;;41.80;38.80;;;;;;5033464;28;20579;-77
2023/06/27 07:56:19;;;;;;;4.03;1.10;;;41.80;38.60;;;;;;5051575;28;21141;-76
2023/06/27 07:58:45;;;;;;;4.37;0.93;;;41.90;38.20;;;;;;5032981;28;20176;-77
2023/06/27 08:01:11;;;;;;;5.43;1.10;;;41.80;37.80;;;;;;5050360;28;20637;-77
2023/06/27 08:03:36;;;;;;;1.97;1.00;;;41.90;37.60;;;;;;5050812;28;20237;-76
2023/06/27 08:06:05;;;;;;;4.10;1.07;;;41.90;37.40;;;;;;5033336;28;21057;-78
2023/06/27 08:08:32;;;;;;;4.80;1.50;;;41.90;37.00;;;;;;5051180;28;20252;-77
2023/06/27 08:10:57;;;;;;;3.17;1.13;;;41.90;36.70;;;;;;5024513;28;20665;-77
2023/06/27 08:13:24;;;;;;;3.70;1.37;;;41.90;36.60;;;;;;5030686;28;20650;-77
2023/06/27 08:15:50;;;;;;;3.30;0.90;;;42.00;36.90;;;;;;5034668;28;20595;-77
2023/06/27 08:18:16;;;;;;;3.87;1.40;;;42.20;36.80;;;;;;5052697;28;20591;-77
2023/06/27 08:20:41;;;;;;;4.03;1.07;;;42.10;36.10;;;;;;5050383;28;21157;-78
2023/06/27 08:23:07;;;;;;;4.47;1.00;;;41.90;35.70;;;;;;5035186;28;20657;-77
2023/06/27 08:25:33;;;;;;;3.80;1.10;;;41.50;35.30;;;;;;5039340;28;20180;-77
2023/06/27 08:27:59;;;;;;;2.90;1.10;;;40.90;35.10;;;;;;5042266;28;20623;-78
2023/06/27 08:30:29;;;;;;;3.20;1.00;;;40.40;35.60;;;;;;5020325;28;20172;-76
2023/06/27 08:32:56;;;;;;;4.17;2.40;;;40.30;36.10;;;;;;5051727;28;20246;-76
2023/06/27 08:35:22;;;;;;;3.17;0.87;;;40.30;36.40;;;;;;5030624;28;20585;-76
2023/06/27 08:37:47;;;;;;;6.00;1.30;;;40.40;36.40;;;;;;5012746;28;20580;-77
2023/06/27 08:40:22;;;;;;;3.13;0.80;;;40.20;35.90;;;;;;5013449;28;20584;-76
2023/06/27 08:42:48;;;;;;;3.63;0.93;;;39.70;35.00;;;;;;5029283;28;20197;-77
2023/06/27 08:45:13;;;;;;;5.17;1.00;;;39.00;34.90;;;;;;5027782;28;21165;-76
2023/06/27 08:47:44;;;;;;;3.10;0.90;;;38.50;35.00;;;;;;5031277;28;20209;-77
2023/06/27 08:50:13;;;;;;;2.83;0.93;;;37.80;34.90;;;;;;5050506;28;20593;-77
2023/06/27 08:52:54;;;;;;;3.97;1.10;;;37.10;35.30;;;;;;5031474;28;20702;-76
2023/06/27 08:55:42;;;;;;;2.80;1.00;;;36.60;35.90;;;;;;5050679;28;21134;-76
2023/06/27 08:58:13;;;;;;;3.77;1.13;;;36.00;36.30;;;;;;5032369;28;20599;-76
2023/06/27 09:00:41;;;;;;;4.80;1.23;;;35.30;36.40;;;;;;5030945;28;20602;-77
2023/06/27 09:03:08;;;;;;;3.90;0.90;;;34.90;36.80;;;;;;5049683;28;20628;-77
2023/06/27 09:05:34;;;;;;;2.87;0.90;;;34.70;37.00;;;;;;5031723;28;20680;-77
2023/06/27 09:08:00;;;;;;;2.90;1.03;;;34.40;37.10;;;;;;5032137;28;20683;-77
2023/06/27 09:10:27;;;;;;;3.30;1.10;;;34.10;37.40;;;;;;5036446;28;20699;-77
2023/06/27 09:12:56;;;;;;;3.70;0.70;;;33.80;37.80;;;;;;5049708;28;20636;-77
2023/06/27 09:15:22;;;;;;;4.80;0.83;;;33.60;38.30;;;;;;5031670;28;21398;-76
2023/06/27 09:17:51;;;;;;;4.13;0.70;;;33.40;38.40;;;;;;5050372;28;20625;-77
2023/06/27 09:20:18;;;;;;;2.77;1.20;;;33.40;38.50;;;;;;5016209;28;20598;-78
2023/06/27 09:22:44;;;;;;;3.30;1.00;;;33.30;38.40;;;;;;5048570;28;20650;-77
2023/06/27 09:25:15;;;;;;;4.43;1.10;;;33.10;38.30;;;;;;5050102;28;20586;-78
2023/06/27 09:27:42;;;;;;;3.40;1.13;;;32.80;38.40;;;;;;5015880;28;20654;-78
2023/06/27 09:30:10;;;;;;;2.47;1.00;;;32.80;38.80;;;;;;5050355;28;20581;-78
2023/06/27 09:32:58;;;;;;;4.43;1.00;;;33.00;38.80;;;;;;5033579;28;20706;-77
2023/06/27 09:35:25;;;;;;;3.10;1.13;;;33.30;39.10;;;;;;5043069;28;20591;-77
2023/06/27 09:37:51;;;;;;;5.20;1.87;;;33.50;39.10;;;;;;5013977;28;20618;-78
2023/06/27 09:40:18;;;;;;;2.63;1.00;;;33.50;38.50;;;;;;5031855;28;20569;-77
2023/06/27 09:42:54;;;;;;;3.00;0.90;;;33.30;38.20;;;;;;5014553;28;20630;-77
2023/06/27 09:45:22;;;;;;;4.80;0.90;;;32.90;38.10;;;;;;5031092;28;20622;-77
2023/06/27 09:47:48;;;;;;;3.60;1.13;;;32.50;38.00;;;;;;5031883;28;21012;-76
2023/06/27 09:50:14;;;;;;;4.17;1.80;;;32.10;38.10;;;;;;5031057;28;20682;-77
2023/06/27 09:52:40;;;;;;;5.07;1.43;;;31.70;38.30;;;;;;5033660;28;20687;-78
2023/06/27 09:55:19;;;;;;;3.97;1.33;;;31.40;38.60;;;;;;5032825;28;20168;-77
2023/06/27 09:57:46;;;;;;;5.60;1.03;;;31.10;39.00;;;;;;5031873;28;20177;-77
2023/06/27 10:00:13;;;;;;;3.67;1.00;;;30.90;39.10;;;;;;5031538;28;20610;-77
2023/06/27 10:02:39;;;;;;;4.10;1.20;;;30.50;39.10;;;;;;5030538;28;20631;-76
2023/06/27 10:05:05;;;;;;;3.10;1.10;;;30.30;39.30;;;;;;5011131;28;20616;-77
2023/06/27 10:07:32;;;;;;;2.83;1.10;;;30.20;39.60;;;;;;5023405;28;21209;-77
2023/06/27 10:09:58;;;;;;;2.70;0.93;;;30.00;40.00;;;;;;5032628;28;20675;-77
2023/06/27 10:12:26;;;;;;;5.33;1.93;;;30.00;40.00;;;;;;5030292;28;20615;-77
2023/06/27 10:14:53;;;;;;;3.90;1.10;;;29.90;40.30;;;;;;5031302;28;20579;-77
2023/06/27 10:17:19;;;;;;;3.83;1.17;;;29.80;40.20;;;;;;5048767;28;20670;-76
2023/06/27 10:19:46;;;;;;;2.10;1.07;;;29.70;40.40;;;;;;5014835;28;21005;-77
2023/06/27 10:22:17;;;;;;;4.20;1.07;;;29.70;41.00;;;;;;5048427;28;20611;-77
2023/06/27 10:24:46;;;;;;;2.47;1.13;;;30.00;41.60;;;;;;5047327;28;20590;-77
2023/06/27 10:27:18;;;;;;;3.60;1.00;;;30.30;41.40;;;;;;5031593;28;20623;-77
2023/06/27 10:29:44;;;;;;;3.57;0.87;;;30.60;41.20;;;;;;5048878;28;20583;-77
2023/06/27 10:32:10;;;;;;;3.20;1.20;;;30.90;40.90;;;;;;5013918;28;20983;-76
2023/06/27 10:34:43;;;;;;;3.83;0.87;;;31.30;40.80;;;;;;5048353;28;20579;-76
2023/06/27 10:37:13;;;;;;;3.50;1.10;;;31.60;40.50;;;;;;5030265;28;20189;-78
2023/06/27 10:39:40;;;;;;;4.17;1.07;;;32.00;40.00;;;;;;5030556;28;20599;-78
2023/06/27 10:42:11;;;;;;;2.60;1.00;;;32.10;39.40;;;;;;5030043;28;21205;-77
2023/06/27 10:45:00;;;;;;;2.30;1.00;;;32.10;39.00;;;;;;5033965;28;20694;-78
2023/06/27 10:47:34;;;;;;;3.10;1.00;;;32.20;38.50;;;;;;5052369;28;20729;-77
2023/06/27 10:50:09;;;;;;;1.90;0.90;;;32.30;38.60;;;;;;5018296;28;20582;-77
2023/06/27 10:52:35;;;;;;;3.40;1.00;;;32.30;38.20;;;;;;5033453;28;20606;-77
2023/06/27 10:55:19;;;;;;;4.80;1.40;;;32.30;39.30;;;;;;5034670;28;21241;-77
2023/06/27 10:57:48;;;;;;;4.27;1.00;;;32.30;38.20;;;;;;5034349;28;20682;-77
2023/06/27 11:00:24;;;;;;;2.20;1.00;;;32.30;38.40;;;;;;5001923;28;20605;-77
2023/06/27 11:02:54;;;;;;;3.80;1.00;;;32.10;38.30;;;;;;5034755;28;20707;-78
2023/06/27 11:05:34;;;;;;;3.03;1.10;;;31.80;38.00;;;;;;5036716;28;20597;-78
2023/06/27 11:08:00;;;;;;;3.17;1.20;;;31.70;37.90;;;;;;5033673;28;20684;-77
2023/06/27 11:10:29;;;;;;;3.77;1.20;;;31.50;37.70;;;;;;5034515;28;20613;-77
2023/06/27 11:13:13;;;;;;;4.10;1.10;;;31.40;37.80;;;;;;5051283;28;20623;-78
2023/06/27 11:15:40;;;;;;;6.10;1.07;;;31.30;38.10;;;;;;5034637;28;20591;-78
2023/06/27 11:18:06;;;;;;;4.53;1.00;;;31.40;38.70;;;;;;5052420;28;20591;-77
2023/06/27 11:20:32;;;;;;;3.40;1.20;;;31.50;38.70;;;;;;5017526;28;20600;-78
2023/06/27 11:23:03;;;;;;;2.60;1.03;;;31.70;38.90;;;;;;5034860;28;20607;-77
2023/06/27 11:25:38;;;;;;;6.60;3.03;;;31.90;38.90;;;;;;5051688;28;20186;-78
2023/06/27 11:28:04;;;;;;;2.30;1.10;;;32.00;38.30;;;;;;5017318;28;20646;-78
2023/06/27 11:30:31;;;;;;;4.63;1.97;;;32.10;38.60;;;;;;5051018;28;20571;-76
2023/06/27 11:32:57;;;;;;;4.17;1.93;;;32.20;38.40;;;;;;5032945;28;20658;-77
2023/06/27 11:35:23;;;;;;;1.97;0.90;;;32.20;38.00;;;;;;5030085;28;20589;-77
2023/06/27 11:37:56;;;;;;;2.47;1.20;;;32.10;37.70;;;;;;5029405;28;20583;-77
2023/06/27 11:40:27;;;;;;;5.03;1.77;;;32.00;37.60;;;;;;4997759;28;21185;-78
2023/06/27 11:43:19;;;;;;;4.80;1.23;;;31.90;38.00;;;;;;4996513;28;20616;-77
2023/06/27 11:45:49;;;;;;;2.70;1.00;;;31.90;38.00;;;;;;5029202;28;20593;-78
2023/06/27 11:48:15;;;;;;;3.53;1.10;;;31.80;37.80;;;;;;5011584;28;20645;-77
2023/06/27 11:51:08;;;;;;;4.07;1.50;;;31.90;37.80;;;;;;5050803;28;21499;-77
2023/06/27 11:53:35;;;;;;;6.03;1.10;;;32.00;37.40;;;;;;5015116;28;21528;-78
2023/06/27 11:56:02;;;;;;;3.90;1.63;;;32.00;37.70;;;;;;5041187;28;20592;-78
2023/06/27 11:58:32;;;;;;;5.60;1.20;;;32.10;38.00;;;;;;5035382;28;20596;-77
2023/06/27 12:00:59;;;;;;;2.10;1.03;;;32.30;38.00;;;;;;5050359;28;20994;-78
2023/06/27 12:03:33;;;;;;;3.00;0.80;;;32.50;37.60;;;;;;5032603;28;20617;-78
2023/06/27 12:05:59;;;;;;;4.70;1.20;;;32.50;37.30;;;;;;5033344;28;20576;-77
2023/06/27 12:08:32;;;;;;;3.03;1.13;;;32.60;37.30;;;;;;5023832;28;20673;-77
2023/06/27 12:11:03;;;;;;;2.50;1.00;;;32.70;37.50;;;;;;5010545;28;20666;-77
2023/06/27 12:13:41;;;;;;;3.30;1.07;;;32.90;37.80;;;;;;5051068;28;20595;-78
2023/06/27 12:16:22;;;;;;;3.10;1.10;;;33.00;37.70;;;;;;5021748;28;20970;-76
2023/06/27 12:18:48;;;;;;;4.50;1.20;;;33.00;37.10;;;;;;5013297;28;20600;-77
2023/06/27 12:21:14;;;;;;;5.37;1.57;;;32.90;36.60;;;;;;5029630;28;20574;-76
2023/06/27 12:23:40;;;;;;;2.93;1.20;;;32.60;36.50;;;;;;4999603;28;21149;-77
2023/06/27 12:26:06;;;;;;;2.57;1.73;;;32.40;36.40;;;;;;5031727;28;20587;-76
2023/06/27 12:28:32;;;;;;;4.80;1.20;;;32.10;36.70;;;;;;5016280;28;20677;-76
2023/06/27 12:30:57;;;;;;;5.53;1.43;;;31.90;36.60;;;;;;5031891;28;20220;-76
2023/06/27 12:33:24;;;;;;;2.90;1.10;;;31.70;36.60;;;;;;5050390;28;20291;-76
2023/06/27 12:35:50;;;;;;;3.27;0.90;;;31.40;36.80;;;;;;5034269;28;20177;-75
2023/06/27 12:38:15;;;;;;;4.70;1.17;;;31.10;36.90;;;;;;5031814;28;20579;-76
2023/06/27 12:40:41;;;;;;;2.30;1.30;;;31.00;37.00;;;;;;5050076;28;20270;-77
2023/06/27 12:43:07;;;;;;;11.03;1.73;;;30.80;37.40;;;;;;5031348;28;20712;-78
2023/06/27 12:45:33;;;;;;;2.80;1.27;;;30.80;37.80;;;;;;5015230;28;20247;-76
2023/06/27 12:47:59;;;;;;;2.60;1.13;;;30.80;37.90;;;;;;5048721;28;21033;-76
2023/06/27 12:50:25;;;;;;;3.50;1.50;;;30.70;38.40;;;;;;5031951;28;20218;-78